Latest Weather Observations for Lake Macquarie - Cooranbong

IDN60901

Issued at 9:05 pm EDT Saturday 22 November 2014 (issued every 10 minutes, with the page automatically refreshed every 10 minutes)

About weather observations | Map of Sydney area stations | Latest observations for Sydney area | Other Formats
Station Details ID: 061412 Name: LAKE MACQUARIE AWS Lat: -33.09 Lon: 151.46 Height: 6.0 m
Data from the previous 72 hours. | See also: Recent months at Lake Macquarie - Cooranbong
Date/Time
EDT
Tmp

°C
App
Tmp
°C
Dew
Point
°C
Rel
Hum
%
Delta-T

°C
Wind Press
QNH
hPa
Press
MSL
hPa
Rain
since
9 am
mm
Dir
 
Spd
km/h
Gust
km/h
Spd
kts
Gust
kts
22/09:00pm 20.9 23.5 18.5 86 1.5 ENE 2 6 1 3 1012.9 1012.9 0.0
22/08:30pm 20.7 22.9 18.3 86 1.5 E 4 7 2 4 1012.6 1012.6 0.0
22/08:00pm 20.7 22.8 18.1 85 1.6 E 4 7 2 4 1012.4 1012.4 0.0
22/07:30pm 20.9 22.5 17.9 83 1.9 E 6 11 3 6 1012.3 1012.3 0.0
22/07:00pm 21.4 22.9 17.6 79 2.3 ENE 6 11 3 6 1011.9 1011.9 0.0
22/06:30pm 21.9 23.2 17.5 76 2.7 E 7 11 4 6 1011.4 1011.4 0.0
22/06:00pm 22.5 23.6 17.2 72 3.3 E 7 13 4 7 1011.0 1011.0 0.0
22/05:30pm 23.3 23.9 16.8 67 4.0 E 9 19 5 10 1010.8 1010.8 0.0
22/05:00pm 23.8 24.3 16.6 64 4.4 E 9 17 5 9 1011.0 1011.0 0.0
22/04:30pm 24.1 24.0 16.9 64 4.4 E 13 24 7 13 1011.1 1011.1 0.0
22/04:00pm 24.7 24.9 16.7 61 4.9 E 11 19 6 10 1011.2 1011.2 0.0
22/03:30pm 25.3 25.3 17.2 61 5.0 E 13 22 7 12 1011.6 1011.6 0.0
22/03:00pm 26.5 26.5 17.3 57 5.8 E 13 20 7 11 1011.6 1011.6 0.0
22/02:30pm 26.3 26.1 16.8 56 5.9 ENE 13 24 7 13 1011.9 1011.9 0.0
22/02:00pm 27.5 27.7 16.8 52 6.7 E 11 20 6 11 1012.2 1012.2 0.0
22/01:30pm 28.4 29.9 17.6 52 6.8 NE 6 11 3 6 1012.5 1012.5 0.0
22/01:00pm 27.3 28.8 16.6 52 6.6 SSE 4 15 2 8 1013.2 1013.2 0.0
22/12:30pm 26.7 27.8 16.6 54 6.3 WNW 6 7 3 4 1013.4 1013.4 0.0
22/12:00pm 25.6 26.3 16.2 56 5.8 E 7 13 4 7 1014.4 1014.4 0.0
22/11:30am 25.0 26.3 16.2 58 5.4 W 4 11 2 6 1015.1 1015.1 0.0
22/11:00am 24.0 24.7 16.0 61 4.9 WSW 7 13 4 7 1015.6 1015.6 0.0
22/10:30am 22.9 23.2 15.0 61 4.7 SSW 7 13 4 7 1016.0 1016.0 0.0
22/10:00am 22.4 22.7 14.5 61 4.6 WSW 6 13 3 7 1015.9 1015.9 0.0
22/09:30am 22.0 22.7 14.4 62 4.5 SSW 4 6 2 3 1016.0 1016.0 0.0
22/09:00am 21.1 21.3 14.3 65 4.0 S 6 11 3 6 1016.2 1016.2 0.0
22/08:30am 21.0 21.3 14.6 67 3.7 S 6 9 3 5 1016.3 1016.3 0.0
22/08:00am 20.5 21.2 14.6 69 3.4 SSW 4 7 2 4 1016.2 1016.2 0.0
22/07:30am 20.3 21.1 14.7 70 3.3 SSW 4 9 2 5 1015.9 1015.9 0.0
22/07:00am 20.1 20.5 14.7 71 3.2 SSW 6 11 3 6 1015.6 1015.6 0.0
22/06:30am 20.0 20.5 15.0 73 2.9 S 6 11 3 6 1015.2 1015.2 0.0
22/06:00am 20.0 20.9 15.0 73 2.9 S 4 9 2 5 1014.9 1014.9 0.0
22/05:30am 20.0 20.9 15.2 74 2.8 SSW 4 9 2 5 1014.3 1014.3 0.0
22/05:00am 20.0 20.3 15.0 73 2.9 S 7 13 4 7 1013.8 1013.8 0.0
22/04:30am 20.1 21.1 15.3 74 2.8 S 4 7 2 4 1013.7 1013.7 0.0
22/04:00am 20.2 20.8 15.4 74 2.8 SSW 6 15 3 8 1013.6 1013.6 0.0
22/03:30am 20.3 20.8 15.5 74 2.8 S 7 17 4 9 1013.6 1013.6 0.0
22/03:00am 20.4 20.9 15.6 74 2.9 S 7 20 4 11 1013.6 1013.6 0.0
22/02:30am 20.6 21.2 15.8 74 2.9 S 7 19 4 10 1013.7 1013.7 0.0
22/02:00am 20.7 21.0 15.9 74 2.9 S 9 19 5 10 1013.6 1013.6 0.0
22/01:30am 21.0 21.9 16.2 74 2.9 SSW 6 15 3 8 1013.7 1013.7 0.0
22/01:00am 21.3 21.8 16.5 74 2.9 S 9 20 5 11 1013.6 1013.6 0.0
22/12:30am 21.6 22.3 17.0 75 2.8 S 9 24 5 13 1013.7 1013.7 0.0
22/12:00am 21.7 22.4 17.1 75 2.8 S 9 22 5 12 1013.5 1013.5 0.0
 
Date/Time
EDT
Tmp

°C
App
Tmp
°C
Dew
Point
°C
Rel
Hum
%
Delta-T

°C
Wind Press
QNH
hPa
Press
MSL
hPa
Rain
since
9 am
mm
Dir
 
Spd
km/h
Gust
km/h
Spd
kts
Gust
kts
21/11:30pm 21.8 22.6 17.2 75 2.8 SSW 9 20 5 11 1013.1 1013.1 0.0
21/11:00pm 21.7 22.8 17.1 75 2.8 SSW 7 19 4 10 1012.7 1012.7 0.0
21/10:30pm 21.8 22.5 17.0 74 2.9 SSW 9 22 5 12 1012.5 1012.5 0.0
21/10:00pm 22.2 22.2 17.3 74 3.0 S 13 30 7 16 1011.9 1011.9 0.0
21/09:30pm 22.9 23.8 18.4 76 2.8 S 11 30 6 16 1011.3 1011.3 0.0
21/09:00pm 23.7 24.8 18.8 74 3.1 SSW 11 20 6 11 1010.1 1010.1 0.0
21/08:30pm 24.8 25.6 19.0 70 3.7 S 13 28 7 15 1008.9 1008.9 0.0
21/08:00pm 26.0 27.1 18.9 65 4.5 S 11 19 6 10 1007.7 1007.7 0.0
21/07:30pm 28.8 31.6 18.9 55 6.4 S 2 7 1 4 1006.0 1006.0 0.0
21/07:00pm 30.1 32.0 18.5 49 7.5 S 6 11 3 6 1005.2 1005.2 0.0
21/06:30pm 30.7 33.4 19.4 51 7.4 SSE 4 7 2 4 1004.4 1004.4 0.0
21/06:00pm 30.4 32.6 19.1 50 7.4 SE 6 9 3 5 1003.8 1003.8 0.0
21/05:30pm 31.0 31.5 18.4 47 8.1 ESE 13 20 7 11 1003.6 1003.6 0.0
21/05:00pm 32.7 32.8 16.5 37 10.3 E 11 19 6 10 1003.3 1003.3 0.0
21/04:48pm 34.9 34.9 15.3 31 12.3 ESE 9 20 5 11 1003.3 1003.3 0.0
21/04:30pm 40.0 37.5 6.4 13 18.8 WSW 9 19 5 10 1003.3 1003.3 0.0
21/04:00pm 38.1 36.5 8.8 17 16.9 WNW 7 13 4 7 1003.4 1003.4 0.0
21/03:30pm 38.0 35.2 6.9 15 17.4 NW 11 24 6 13 1003.7 1003.7 0.0
21/03:00pm 38.8 36.2 9.4 17 17.2 NNW 13 24 7 13 1003.8 1003.8 0.0
21/02:30pm 37.2 34.8 7.2 16 16.8 W 9 19 5 10 1004.2 1004.2 0.0
21/02:00pm 37.3 35.2 8.2 17 16.6 W 9 24 5 13 1004.6 1004.6 0.0
21/01:30pm 37.2 33.9 6.3 15 17.1 NW 13 20 7 11 1004.6 1004.6 0.0
21/01:00pm 37.7 33.9 5.6 14 17.6 NW 15 24 8 13 1005.1 1005.1 0.0
21/12:30pm 36.5 33.1 10.6 21 15.2 N 19 37 10 20 1005.3 1005.3 0.0
21/12:00pm 36.8 33.5 11.6 22 15.1 N 20 30 11 16 1005.6 1005.6 0.0
21/11:30am 36.8 35.2 12.9 24 14.5 NNW 13 20 7 11 1006.1 1006.1 0.0
21/11:00am 35.9 35.1 14.0 27 13.5 NW 11 20 6 11 1006.5 1006.5 0.0
21/10:30am 34.6 33.2 14.5 30 12.4 N 15 26 8 14 1006.9 1006.9 0.0
21/10:00am 34.1 32.9 15.1 32 11.8 NNW 15 26 8 14 1007.1 1007.1 0.0
21/09:30am 33.3 32.2 15.3 34 11.2 NNW 15 30 8 16 1007.4 1007.4 0.0
21/09:00am 32.5 31.0 14.1 32 11.2 NNW 15 28 8 15 1007.6 1007.6 0.0
21/08:30am 31.6 31.5 13.8 34 10.8 NW 7 15 4 8 1007.8 1007.8 0.0
21/08:00am 28.8 29.8 15.3 43 8.3 NW 4 9 2 5 1007.8 1007.8 0.0
21/07:30am 25.5 27.8 17.7 62 4.9 NW 2 6 1 3 1007.6 1007.6 0.0
21/07:00am 21.6 24.2 19.2 86 1.5 N 4 6 2 3 1007.2 1007.2 0.0
21/06:30am 20.4 23.3 18.2 87 1.4 CALM 0 2 0 1 1007.2 1007.2 0.0
21/06:00am 20.0 22.1 18.0 88 1.2 NW 4 7 2 4 1006.9 1006.9 0.0
21/05:30am 18.7 20.7 17.9 95 0.5 N 4 7 2 4 1006.8 1006.8 0.0
21/05:00am 18.6 21.4 17.9 96 0.4 CALM 0 0 0 0 1005.9 1005.9 0.0
21/04:30am 18.5 21.3 17.9 96 0.4 CALM 0 0 0 0 1005.7 1005.7 0.0
21/04:00am 18.3 20.9 17.5 95 0.5 CALM 0 0 0 0 1005.7 1005.7 0.0
21/03:30am 18.5 21.2 17.7 95 0.5 CALM 0 0 0 0 1005.8 1005.8 0.0
21/03:00am 18.9 21.7 17.9 94 0.6 CALM 0 0 0 0 1006.0 1006.0 0.0
21/02:30am 19.4 22.4 18.4 94 0.6 CALM 0 0 0 0 1006.2 1006.2 0.0
21/02:00am 19.9 23.0 18.7 93 0.8 CALM 0 0 0 0 1006.5 1006.5 0.0
21/01:30am 20.1 23.3 18.8 92 0.8 CALM 0 0 0 0 1006.6 1006.6 0.0
21/01:00am 20.3 23.6 19.0 92 0.8 CALM 0 0 0 0 1007.0 1007.0 0.0
21/12:30am 20.8 24.2 19.3 91 0.9 CALM 0 0 0 0 1007.5 1007.5 0.0
21/12:00am 20.9 24.2 19.2 90 1.1 CALM 0 0 0 0 1007.9 1007.9 0.0
 
Date/Time
EDT
Tmp

°C
App
Tmp
°C
Dew
Point
°C
Rel
Hum
%
Delta-T

°C
Wind Press
QNH
hPa
Press
MSL
hPa
Rain
since
9 am
mm
Dir
 
Spd
km/h
Gust
km/h
Spd
kts
Gust
kts
20/11:30pm 21.4 24.8 19.3 88 1.3 CALM 0 0 0 0 1008.1 1008.1 0.0
20/11:00pm 21.6 25.0 19.3 87 1.5 CALM 0 0 0 0 1008.2 1008.2 0.0
20/10:30pm 22.1 25.6 19.6 86 1.6 CALM 0 0 0 0 1008.3 1008.3 0.0
20/10:00pm 22.6 26.2 19.8 84 1.8 CALM 0 0 0 0 1008.2 1008.2 0.0
20/09:30pm 23.1 26.8 19.9 82 2.1 CALM 0 0 0 0 1008.1 1008.1 0.0
20/09:00pm 23.6 27.2 19.7 79 2.5 CALM 0 0 0 0 1007.9 1007.9 0.0
20/08:30pm 24.4 28.1 19.9 76 2.9 CALM 0 0 0 0 1007.7 1007.7 0.0
20/08:00pm 25.1 28.8 19.9 73 3.4 CALM 0 0 0 0 1007.6 1007.6 0.0
20/07:30pm 26.2 30.0 20.1 69 4.0 CALM 0 0 0 0 1007.5 1007.5 0.0
20/07:00pm 27.3 30.1 19.6 62 5.0 SE 4 4 2 2 1007.3 1007.3 0.0
20/06:30pm 27.5 30.4 19.8 63 5.0 SE 4 9 2 5 1007.0 1007.0 0.0
20/06:00pm 27.6 29.8 19.7 62 5.1 ESE 7 13 4 7 1006.8 1006.8 0.0
20/05:30pm 28.6 30.8 19.5 58 5.9 ESE 7 13 4 7 1006.9 1006.9 0.0
20/05:00pm 29.0 29.8 19.0 54 6.5 E 13 19 7 10 1007.1 1007.1 0.0
20/04:30pm 28.3 28.8 19.2 57 5.9 ESE 15 28 8 15 1007.6 1007.6 0.0
20/04:00pm 28.3 28.3 19.0 57 6.0 E 17 26 9 14 1008.0 1008.0 0.0
20/03:30pm 28.2 27.4 19.2 58 5.8 ESE 22 32 12 17 1008.3 1008.3 0.0
20/03:00pm 28.2 27.6 18.9 57 6.0 E 20 32 11 17 1008.6 1008.6 0.0
20/02:30pm 28.0 27.7 19.2 58 5.7 ESE 19 28 10 15 1009.2 1009.2 0.0
20/02:00pm 27.4 27.7 19.5 62 5.1 ESE 17 28 9 15 1009.8 1009.8 0.0
20/01:30pm 27.1 26.4 18.7 60 5.4 ESE 20 28 11 15 1010.5 1010.5 0.0
20/01:00pm 27.4 27.2 17.6 55 6.2 E 15 24 8 13 1010.9 1010.9 0.0
20/12:30pm 31.2 32.8 18.2 46 8.4 ENE 7 13 4 7 1011.4 1011.4 0.0
20/12:00pm 30.8 32.4 16.8 43 8.8 SSE 4 6 2 3 1012.0 1012.0 0.0
20/11:30am 29.9 30.3 16.3 43 8.5 N 9 17 5 9 1012.6 1012.6 0.0
20/11:00am 29.1 29.8 17.0 48 7.6 N 9 22 5 12 1013.1 1013.1 0.0
20/10:30am 27.1 29.0 17.6 56 6.0 ENE 4 9 2 5 1013.7 1013.7 0.0
20/10:00am 25.8 27.9 18.2 63 4.8 E 4 7 2 4 1014.1 1014.1 0.0
20/09:30am 24.9 26.5 17.9 65 4.4 ESE 6 11 3 6 1014.5 1014.5 0.0
20/09:00am 22.8 24.3 16.6 68 3.8 NNE 4 9 2 5 1015.0 1015.0 0.0
20/08:30am 21.8 23.2 17.4 76 2.7 N 6 7 3 4 1015.6 1015.6 0.0
20/08:00am 19.9 22.0 17.3 85 1.6 NNE 2 6 1 3 1015.4 1015.4 0.0
20/07:30am 17.8 20.1 16.8 94 0.6 CALM 0 0 0 0 1015.4 1015.4 0.0
20/07:00am 15.9 17.7 15.6 98 0.2 CALM 0 0 0 0 1015.6 1015.6 0.0
20/06:30am 14.2 15.4 13.7 97 0.3 CALM 0 0 0 0 1015.7 1015.7 0.0
20/06:00am 13.4 14.3 12.8 96 0.3 CALM 0 0 0 0 1015.5 1015.5 0.0
20/05:30am 14.0 15.1 13.4 96 0.3 CALM 0 0 0 0 1015.4 1015.4 0.0
20/05:00am 14.6 15.9 14.1 97 0.3 CALM 0 0 0 0 1015.4 1015.4 0.0
20/04:30am 14.6 15.9 14.0 96 0.3 CALM 0 0 0 0 1015.4 1015.4 0.0
20/04:00am 14.7 16.0 14.1 96 0.3 CALM 0 0 0 0 1015.2 1015.2 0.0
20/03:30am 15.0 16.4 14.4 96 0.3 CALM 0 0 0 0 1015.4 1015.4 0.0
20/03:00am 15.8 17.5 15.2 96 0.3 CALM 0 0 0 0 1015.4 1015.4 0.0
20/02:30am 16.1 17.9 15.5 96 0.3 CALM 0 0 0 0 1015.2 1015.2 0.0
20/02:00am 16.1 17.8 15.3 95 0.5 CALM 0 0 0 0 1015.7 1015.7 0.0
20/01:30am 16.7 18.7 15.9 95 0.5 CALM 0 0 0 0 1016.2 1016.2 0.0
20/01:00am 17.2 19.3 16.2 94 0.6 CALM 0 0 0 0 1016.6 1016.6 0.0
20/12:30am 17.7 19.9 16.6 93 0.7 CALM 0 0 0 0 1016.7 1016.7 0.0
20/12:00am 18.1 20.3 16.6 91 0.9 CALM 0 0 0 0 1016.9 1016.9 0.0
 
Date/Time
EDT
Tmp

°C
App
Tmp
°C
Dew
Point
°C
Rel
Hum
%
Delta-T

°C
Wind Press
QNH
hPa
Press
MSL
hPa
Rain
since
9 am
mm
Dir
 
Spd
km/h
Gust
km/h
Spd
kts
Gust
kts
19/11:30pm 18.6 21.0 16.9 90 1.0 CALM 0 0 0 0 1016.7 1016.7 0.0
19/11:00pm 19.2 21.7 17.2 88 1.2 CALM 0 0 0 0 1016.9 1016.9 0.0
19/10:30pm 19.9 22.3 17.1 84 1.7 CALM 0 2 0 1 1017.1 1017.1 0.0
19/10:00pm 20.9 23.4 18.1 84 1.7 NE 2 7 1 4 1017.2 1017.2 0.0
19/09:30pm 20.9 22.8 17.7 82 2.0 NE 4 7 2 4 1017.3 1017.3 0.0

Latest Capital City Observations: Canberra | Sydney | Melbourne | Brisbane | Adelaide | Perth | Hobart | Darwin

Other Formats:

Comma delimited format used in spreadsheet applications
http://www.bom.gov.au/fwo/IDN60901/IDN60901.95767.axf

JavaScript Object Notation format (JSON) in row-major order
http://www.bom.gov.au/fwo/IDN60901/IDN60901.95767.json